Time;durP1;ratioP1;P1;durP2;ratioP2;P2;SDS_P1;SDS_P2;PMS_P1;PMS_P2;Temp;Humidity;BMP_temperature;BMP_pressure;BME280_temperature;BME280_humidity;BME280_pressure;Samples;Min_cycle;Max_cycle;Signal;HPM_P1;HPM_P2
2022/08/26 00:01:47;;;;;;;5.40;4.90;;;30.00;45.70;31.00;100534.00;;;;5046865;28;20170;-43
2022/08/26 00:04:13;;;;;;;5.15;4.65;;;30.00;45.40;30.90;100536.00;;;;5046721;28;20248;-44
2022/08/26 00:06:39;;;;;;;4.80;4.40;;;29.90;45.60;30.90;100530.00;;;;5046360;28;20651;-44
2022/08/26 00:09:05;;;;;;;5.10;4.60;;;29.90;45.90;30.90;100530.00;;;;5046341;28;20633;-45
2022/08/26 00:11:31;;;;;;;4.60;4.20;;;29.90;45.90;30.80;100521.00;;;;5046050;28;20193;-43
2022/08/26 00:13:56;;;;;;;5.10;4.60;;;29.90;46.00;30.80;100519.00;;;;5045942;28;20229;-43
2022/08/26 00:16:23;;;;;;;4.90;4.60;;;29.90;46.10;30.80;100520.00;;;;5045764;28;20174;-42
2022/08/26 00:18:49;;;;;;;5.00;4.60;;;29.90;46.10;30.70;100518.00;;;;5045809;28;20201;-43
2022/08/26 00:21:15;;;;;;;4.88;4.38;;;29.90;46.20;30.70;100511.00;;;;5045963;28;20162;-44
2022/08/26 00:23:40;;;;;;;5.15;4.65;;;29.80;46.10;30.70;100533.00;;;;5044634;28;20171;-43
2022/08/26 00:26:06;;;;;;;5.22;4.82;;;29.80;46.10;30.70;100538.00;;;;5045497;28;20188;-44
2022/08/26 00:28:32;;;;;;;5.10;4.70;;;29.80;46.10;30.60;100540.00;;;;5046830;28;20190;-40
2022/08/26 00:30:58;;;;;;;4.88;4.47;;;29.70;46.10;30.60;100540.00;;;;5047447;28;20185;-43
2022/08/26 00:33:24;;;;;;;5.00;4.60;;;29.70;46.20;30.60;100543.00;;;;5046514;28;20174;-43
2022/08/26 00:35:50;;;;;;;5.03;4.60;;;29.70;46.20;30.60;100537.00;;;;5045244;28;20204;-44
2022/08/26 00:38:16;;;;;;;5.13;4.70;;;29.70;46.00;30.60;100546.00;;;;5045258;28;20275;-44
2022/08/26 00:40:51;;;;;;;5.28;4.78;;;29.60;46.00;30.60;100545.00;;;;5045939;28;20185;-43
2022/08/26 00:43:16;;;;;;;5.28;4.88;;;29.70;46.30;30.50;100542.00;;;;5045942;28;20646;-44
2022/08/26 00:45:53;;;;;;;5.43;5.03;;;29.70;46.00;30.50;100550.00;;;;5046029;28;20166;-42
2022/08/26 00:48:21;;;;;;;5.72;4.78;;;29.70;46.00;30.40;100549.00;;;;5044368;28;20194;-43
2022/08/26 00:50:55;;;;;;;5.25;4.70;;;29.60;46.10;30.50;100559.00;;;;5044428;28;20179;-44
2022/08/26 00:53:21;;;;;;;5.63;4.95;;;29.60;46.20;30.50;100557.00;;;;5027797;28;20189;-42
2022/08/26 00:55:56;;;;;;;6.32;4.95;;;29.70;46.50;30.40;100562.00;;;;5044609;28;20239;-39
2022/08/26 00:58:22;;;;;;;5.15;4.72;;;29.70;46.50;30.40;100560.00;;;;5044480;28;20220;-43
2022/08/26 01:00:48;;;;;;;5.18;4.78;;;29.70;46.50;30.40;100559.00;;;;5044438;28;20179;-43
2022/08/26 01:03:14;;;;;;;5.10;4.70;;;29.60;46.50;30.40;100563.00;;;;5045508;28;20635;-43
2022/08/26 01:05:40;;;;;;;5.38;4.55;;;29.60;46.60;30.40;100566.00;;;;5044357;28;20181;-43
2022/08/26 01:08:06;;;;;;;5.30;4.90;;;29.60;46.60;30.30;100560.00;;;;5045111;28;20221;-44
2022/08/26 01:10:32;;;;;;;5.53;5.03;;;29.60;46.70;30.30;100564.00;;;;5045317;28;20206;-44
2022/08/26 01:13:00;;;;;;;5.50;5.00;;;29.60;46.80;30.30;100568.00;;;;5043852;28;20598;-44
2022/08/26 01:15:39;;;;;;;5.30;4.80;;;29.60;46.90;30.30;100571.00;;;;5044155;28;20180;-44
2022/08/26 01:18:05;;;;;;;7.95;7.20;;;29.60;46.90;30.30;100573.00;;;;5044929;28;20197;-45
2022/08/26 01:21:10;;;;;;;6.68;5.88;;;29.50;47.10;30.30;100577.00;;;;5057725;28;20185;-45
2022/08/26 01:23:42;;;;;;;5.55;5.05;;;29.60;47.30;30.30;100572.00;;;;5050285;28;20292;-42
2022/08/26 01:26:14;;;;;;;5.53;5.10;;;29.60;47.30;30.30;100569.00;;;;5044786;28;20221;-45
2022/08/26 01:28:40;;;;;;;5.93;5.40;;;29.50;47.30;30.20;100580.00;;;;5043697;28;20222;-43
2022/08/26 01:31:10;;;;;;;5.95;5.47;;;29.60;47.40;30.20;100569.00;;;;5044003;28;20765;-42
2022/08/26 01:34:09;;;;;;;6.18;5.63;;;29.60;47.50;30.20;100576.00;;;;5044092;28;20182;-42
2022/08/26 01:36:36;;;;;;;5.88;5.38;;;29.60;47.60;30.20;100579.00;;;;5044131;28;20189;-44
2022/08/26 01:39:03;;;;;;;6.10;5.50;;;29.50;47.70;30.20;100570.00;;;;5043756;28;20182;-41
2022/08/26 01:41:29;;;;;;;5.75;5.25;;;29.50;47.80;30.20;100580.00;;;;5045161;28;20806;-43
2022/08/26 01:43:55;;;;;;;6.03;5.43;;;29.50;47.90;30.20;100578.00;;;;5045132;28;20167;-44
2022/08/26 01:46:21;;;;;;;6.57;5.97;;;29.50;48.10;30.20;100586.00;;;;5045173;28;20595;-43
2022/08/26 01:48:47;;;;;;;5.60;5.20;;;29.40;48.70;30.10;100590.00;;;;5047304;28;20206;-42
2022/08/26 01:51:13;;;;;;;6.53;5.93;;;29.40;48.10;29.90;100591.00;;;;5047677;28;20228;-43
2022/08/26 01:53:39;;;;;;;6.03;5.53;;;29.40;48.10;30.10;100589.00;;;;5047398;28;20170;-44
2022/08/26 01:56:05;;;;;;;6.18;5.68;;;29.40;48.10;30.10;100598.00;;;;5047225;28;20167;-42
2022/08/26 01:58:40;;;;;;;6.20;5.60;;;29.40;48.40;30.10;100562.00;;;;5047009;28;20229;-42
2022/08/26 02:01:06;;;;;;;6.63;6.03;;;29.40;48.60;30.10;100596.00;;;;5047342;28;20842;-43
2022/08/26 02:03:32;;;;;;;6.90;5.95;;;29.40;48.70;30.10;100597.00;;;;5048585;28;20167;-43
2022/08/26 02:06:02;;;;;;;6.65;6.05;;;29.40;48.80;30.00;100592.00;;;;5047524;28;20169;-44
2022/08/26 02:08:42;;;;;;;6.75;6.03;;;29.40;48.90;30.00;100600.00;;;;5051789;28;20191;-43
2022/08/26 02:11:08;;;;;;;7.00;6.32;;;29.40;49.10;30.00;100542.00;;;;5050929;28;20536;-43
2022/08/26 02:13:37;;;;;;;7.00;6.30;;;29.40;49.10;30.00;100613.00;;;;5048300;28;20178;-43
2022/08/26 02:16:03;;;;;;;6.25;5.65;;;29.30;49.10;30.00;100611.00;;;;5047155;28;20171;-43
2022/08/26 02:18:29;;;;;;;6.78;6.15;;;29.30;49.10;30.00;100602.00;;;;5047758;28;20899;-44
2022/08/26 02:20:55;;;;;;;7.82;7.13;;;29.40;49.20;30.00;100616.00;;;;5047021;28;20220;-43
2022/08/26 02:23:21;;;;;;;7.95;7.25;;;29.30;49.40;29.90;100609.00;;;;5046826;28;20186;-44
2022/08/26 02:26:04;;;;;;;8.20;7.53;;;29.30;49.60;29.90;100612.00;;;;5047981;28;20178;-43
2022/08/26 02:28:35;;;;;;;7.80;7.10;;;29.30;49.60;29.90;100615.00;;;;5046618;28;20214;-44
2022/08/26 02:31:01;;;;;;;7.90;7.10;;;29.30;49.70;29.90;100616.00;;;;5048279;28;20556;-42
2022/08/26 02:33:28;;;;;;;7.40;6.65;;;29.30;49.90;29.90;100620.00;;;;5049478;28;20184;-43
2022/08/26 02:35:54;;;;;;;6.57;5.97;;;29.30;49.90;29.90;100616.00;;;;5070141;28;20174;-45
2022/08/26 02:38:19;;;;;;;7.57;6.88;;;29.20;50.10;29.80;100620.00;;;;5069292;28;20189;-45
2022/08/26 02:40:45;;;;;;;8.30;6.40;;;29.20;49.90;29.80;100621.00;;;;5049387;28;20162;-43
2022/08/26 02:43:11;;;;;;;7.07;6.47;;;29.20;49.90;29.80;100615.00;;;;5050097;28;20232;-45
2022/08/26 02:45:38;;;;;;;7.78;7.07;;;29.20;50.00;29.80;100616.00;;;;5060679;28;20229;-44
2022/08/26 02:48:10;;;;;;;8.18;6.75;;;29.20;50.10;29.80;100615.00;;;;5052857;28;20300;-43
2022/08/26 02:50:37;;;;;;;7.47;6.50;;;29.10;50.10;29.80;100616.00;;;;5046842;28;20189;-43
2022/08/26 02:53:03;;;;;;;7.07;6.53;;;29.10;50.20;29.80;100618.00;;;;5047598;28;20658;-41
2022/08/26 02:55:29;;;;;;;7.00;6.40;;;29.20;50.30;29.80;100614.00;;;;5048502;28;20174;-44
2022/08/26 02:57:54;;;;;;;7.60;6.90;;;29.10;50.30;29.70;100613.00;;;;5047148;28;20868;-43
2022/08/26 03:00:20;;;;;;;9.77;8.73;;;29.10;50.60;29.70;100616.00;;;;5047523;28;20946;-42
2022/08/26 03:02:46;;;;;;;10.20;9.20;;;29.10;50.90;29.70;100611.00;;;;5047892;28;20221;-43
2022/08/26 03:05:12;;;;;;;9.10;8.27;;;29.00;51.10;29.70;100620.00;;;;5047169;28;20198;-44
2022/08/26 03:07:37;;;;;;;13.25;12.15;;;29.10;51.10;29.70;100616.00;;;;5047227;28;20202;-44
2022/08/26 03:10:05;;;;;;;14.95;13.65;;;29.10;51.40;29.70;100613.00;;;;5046993;28;20675;-43
2022/08/26 03:12:30;;;;;;;11.45;10.52;;;29.00;51.90;29.60;100619.00;;;;5047337;28;20289;-43
2022/08/26 03:14:56;;;;;;;11.63;10.60;;;28.90;51.90;29.60;100619.00;;;;5046990;28;20249;-43
2022/08/26 03:17:22;;;;;;;14.23;13.00;;;28.90;51.90;29.60;100611.00;;;;5046914;28;20243;-43
2022/08/26 03:19:47;;;;;;;13.88;12.65;;;28.90;52.30;29.60;100620.00;;;;5045515;28;20178;-44
2022/08/26 03:22:13;;;;;;;11.38;10.38;;;28.90;52.30;29.60;100610.00;;;;5046450;28;20174;-42
2022/08/26 03:24:39;;;;;;;12.02;10.93;;;28.90;52.50;29.50;100610.00;;;;5047439;28;20792;-44
2022/08/26 03:27:05;;;;;;;15.10;13.70;;;28.80;52.70;29.50;100626.00;;;;5046777;28;20223;-43
2022/08/26 03:32:16;;;;;;;16.13;14.70;;;28.80;53.20;29.50;100619.00;;;;5066611;28;20212;-42
2022/08/26 03:34:41;;;;;;;16.65;15.25;;;28.80;53.80;29.50;100618.00;;;;5066801;28;20293;-43
2022/08/26 03:37:07;;;;;;;17.67;16.27;;;28.70;53.80;29.40;100609.00;;;;5066643;28;20492;-43
2022/08/26 03:39:33;;;;;;;14.10;12.90;;;28.60;54.50;29.40;100603.00;;;;5066395;28;20197;-42
2022/08/26 03:41:59;;;;;;;12.55;11.55;;;28.60;54.00;29.40;100607.00;;;;5066515;28;20173;-45
2022/08/26 03:44:25;;;;;;;17.88;16.30;;;28.60;54.00;29.40;100612.00;;;;5068239;28;20176;-46
2022/08/26 03:46:51;;;;;;;16.08;14.77;;;28.60;54.60;29.30;100617.00;;;;5068738;28;20570;-43
2022/08/26 03:49:16;;;;;;;15.25;14.05;;;28.60;55.10;29.30;100611.00;;;;5063949;28;20209;-44
2022/08/26 03:51:42;;;;;;;20.13;18.52;;;28.50;55.80;29.30;100607.00;;;;5065797;28;20535;-44
2022/08/26 03:54:08;;;;;;;15.80;14.48;;;28.60;55.20;29.30;100612.00;;;;5065467;28;20250;-44
2022/08/26 03:56:34;;;;;;;20.55;18.80;;;28.50;55.50;29.30;100610.00;;;;5065442;28;20201;-42
2022/08/26 03:59:00;;;;;;;19.38;17.70;;;28.50;55.50;29.20;100615.00;;;;5065496;28;20718;-44
2022/08/26 04:01:26;;;;;;;17.67;16.17;;;28.50;56.00;29.20;100621.00;;;;5065662;28;20296;-44
2022/08/26 04:03:57;;;;;;;19.20;17.52;;;28.50;56.20;29.20;100620.00;;;;5068166;28;20506;-44
2022/08/26 04:06:24;;;;;;;21.50;19.60;;;28.40;56.40;29.20;100631.00;;;;5066359;28;20172;-44
2022/08/26 04:08:50;;;;;;;19.95;18.23;;;28.40;56.80;29.10;100619.00;;;;5056717;28;20313;-45
2022/08/26 04:11:20;;;;;;;17.98;16.38;;;28.30;57.00;29.10;100605.00;;;;5049647;28;20178;-41
2022/08/26 04:13:46;;;;;;;15.05;13.65;;;28.20;56.70;29.00;100618.00;;;;5044232;28;20162;-43
2022/08/26 04:16:12;;;;;;;20.10;18.40;;;28.20;56.30;29.00;100616.00;;;;5049215;28;20177;-44
2022/08/26 04:18:38;;;;;;;17.13;15.73;;;28.20;57.30;29.00;100621.00;;;;5052950;28;20186;-44
2022/08/26 04:21:05;;;;;;;17.02;15.73;;;28.20;57.30;29.00;100620.00;;;;5046328;28;20197;-46
2022/08/26 04:23:30;;;;;;;15.60;14.23;;;28.20;57.60;28.90;100618.00;;;;5044966;28;20252;-43
2022/08/26 04:25:56;;;;;;;19.27;17.55;;;28.20;57.30;28.90;100617.00;;;;5045059;28;20578;-41
2022/08/26 04:28:22;;;;;;;18.95;17.17;;;28.10;57.70;28.90;100623.00;;;;5045657;28;20194;-45
2022/08/26 04:30:48;;;;;;;17.23;15.73;;;28.10;57.50;28.90;100627.00;;;;5045264;28;20182;-45
2022/08/26 04:33:14;;;;;;;14.13;12.93;;;28.10;57.50;28.90;100621.00;;;;5045542;28;20198;-42
2022/08/26 04:35:40;;;;;;;14.35;13.00;;;28.20;57.00;28.90;100634.00;;;;5045648;28;20198;-43
2022/08/26 04:38:06;;;;;;;14.30;11.95;;;28.20;56.60;28.90;100634.00;;;;5045177;28;20736;-44
2022/08/26 04:40:31;;;;;;;14.82;13.35;;;28.20;56.40;28.90;100641.00;;;;5045217;28;20162;-44
2022/08/26 04:42:57;;;;;;;18.90;17.10;;;28.20;56.90;28.90;100635.00;;;;5045545;28;20170;-44
2022/08/26 04:45:24;;;;;;;17.80;16.40;;;28.20;57.50;28.90;100635.00;;;;5045675;28;20664;-42
2022/08/26 04:47:55;;;;;;;18.88;17.15;;;28.20;57.20;28.80;100630.00;;;;5045226;28;20190;-44
2022/08/26 04:50:22;;;;;;;14.68;13.27;;;28.10;57.70;28.80;100632.00;;;;5045517;28;20173;-42
2022/08/26 04:52:48;;;;;;;14.05;12.65;;;28.20;56.60;28.90;100639.00;;;;5043457;28;20690;-43
2022/08/26 04:55:14;;;;;;;14.27;12.88;;;28.20;56.00;28.90;100638.00;;;;5045367;28;20189;-42
2022/08/26 04:57:40;;;;;;;15.45;14.05;;;28.20;55.60;28.90;100645.00;;;;5043713;28;20198;-44
2022/08/26 05:00:07;;;;;;;14.90;13.50;;;28.20;56.30;28.90;100654.00;;;;5044661;28;20193;-44
2022/08/26 05:02:33;;;;;;;16.20;14.68;;;28.20;56.30;28.80;100658.00;;;;5045248;28;20257;-44
2022/08/26 05:04:59;;;;;;;16.65;14.93;;;28.20;56.30;28.80;100647.00;;;;5045258;28;20261;-44
2022/08/26 05:07:24;;;;;;;14.95;13.55;;;28.20;56.20;28.80;100639.00;;;;5044672;28;20194;-45
2022/08/26 05:09:51;;;;;;;13.43;12.13;;;28.20;55.90;28.80;100645.00;;;;5045130;28;20873;-44
2022/08/26 05:12:17;;;;;;;13.95;12.70;;;28.20;55.50;28.80;100637.00;;;;5044719;28;20663;-44
2022/08/26 05:14:43;;;;;;;17.70;16.00;;;28.30;56.30;28.80;100640.00;;;;5045025;28;20201;-45
2022/08/26 05:17:08;;;;;;;16.17;14.77;;;28.20;56.30;28.80;100630.00;;;;5045016;28;20202;-44
2022/08/26 05:19:35;;;;;;;15.15;13.73;;;28.20;56.20;28.80;100642.00;;;;5045326;28;20190;-44
2022/08/26 05:22:01;;;;;;;18.50;16.70;;;28.20;55.80;28.80;100636.00;;;;5049853;28;20253;-45
2022/08/26 05:24:28;;;;;;;13.90;12.55;;;28.20;56.00;28.80;100630.00;;;;5052431;28;20230;-44
2022/08/26 05:26:54;;;;;;;21.60;19.70;;;28.20;55.80;28.80;100631.00;;;;5050710;28;20198;-44
2022/08/26 05:29:20;;;;;;;17.10;15.40;;;28.20;56.30;28.80;100634.00;;;;5048256;28;20734;-43
2022/08/26 05:31:49;;;;;;;19.55;17.83;;;28.10;56.50;28.80;100637.00;;;;5048643;28;20679;-44
2022/08/26 05:34:14;;;;;;;17.20;15.60;;;28.10;57.00;28.70;100633.00;;;;5049659;28;20249;-42
2022/08/26 05:36:40;;;;;;;18.80;17.10;;;28.10;56.80;28.70;100634.00;;;;5048838;28;20579;-43
2022/08/26 05:39:06;;;;;;;18.27;16.50;;;28.10;56.60;28.70;100638.00;;;;5048452;28;20185;-43
2022/08/26 05:41:36;;;;;;;16.90;15.40;;;28.10;56.30;28.70;100639.00;;;;5048138;28;20170;-43
2022/08/26 05:44:05;;;;;;;18.25;16.45;;;28.10;56.40;28.70;100644.00;;;;5047592;28;20175;-42
2022/08/26 05:46:31;;;;;;;19.10;17.40;;;28.10;56.50;28.70;100650.00;;;;5048795;28;20178;-43
2022/08/26 05:48:57;;;;;;;18.45;16.63;;;28.00;57.00;28.70;100649.00;;;;5054124;28;20433;-43
2022/08/26 05:51:23;;;;;;;18.15;16.30;;;28.10;56.70;28.70;100657.00;;;;5055209;28;20204;-43
2022/08/26 05:53:49;;;;;;;16.83;15.32;;;28.10;56.70;28.60;100647.00;;;;5048742;28;20174;-43
2022/08/26 05:56:16;;;;;;;18.15;16.42;;;28.00;56.60;28.60;100651.00;;;;5048600;28;20257;-44
2022/08/26 05:58:41;;;;;;;18.35;16.65;;;28.00;56.60;28.60;100660.00;;;;5048293;28;20202;-42
2022/08/26 06:01:16;;;;;;;26.55;15.55;;;28.00;57.00;28.60;100656.00;;;;5029775;28;20175;-44
2022/08/26 06:03:48;;;;;;;19.30;17.35;;;28.00;57.10;28.60;100657.00;;;;5049077;28;20184;-44
2022/08/26 06:06:17;;;;;;;19.13;17.17;;;28.00;57.90;28.60;100652.00;;;;5048348;28;20165;-42
2022/08/26 06:08:45;;;;;;;17.23;15.68;;;28.00;58.10;28.50;100662.00;;;;5048043;28;20304;-42
2022/08/26 06:11:12;;;;;;;16.60;15.00;;;27.90;57.90;28.50;100664.00;;;;5047426;28;20193;-43
2022/08/26 06:13:39;;;;;;;16.02;14.52;;;28.00;57.60;28.50;100666.00;;;;5051561;28;20905;-42
2022/08/26 06:16:10;;;;;;;17.25;15.75;;;28.00;57.20;28.50;100669.00;;;;5049791;28;20647;-45
2022/08/26 06:18:40;;;;;;;17.15;15.73;;;28.00;57.10;28.50;100666.00;;;;5049126;28;20244;-42
2022/08/26 06:21:19;;;;;;;15.80;14.23;;;28.00;57.00;28.50;100659.00;;;;5048253;28;20181;-41
2022/08/26 06:26:30;;;;;;;17.38;15.77;;;27.90;57.80;28.50;100662.00;;;;5047773;28;20607;-44
2022/08/26 06:28:56;;;;;;;15.00;13.63;;;27.90;58.00;28.50;100665.00;;;;5047554;28;20186;-43
2022/08/26 06:31:22;;;;;;;14.18;12.80;;;27.90;57.80;28.50;100659.00;;;;5047684;28;20150;-42
2022/08/26 06:33:48;;;;;;;16.10;14.45;;;27.90;57.30;28.50;100663.00;;;;5047020;28;20166;-42
2022/08/26 06:36:24;;;;;;;13.80;12.65;;;28.00;57.40;28.50;100661.00;;;;5047549;28;20170;-43
2022/08/26 06:38:51;;;;;;;14.68;13.27;;;27.90;57.40;28.50;100662.00;;;;5047656;28;20193;-43
2022/08/26 06:41:19;;;;;;;15.35;13.85;;;27.90;57.30;28.40;100658.00;;;;5047361;28;20166;-42
2022/08/26 06:43:44;;;;;;;14.43;13.02;;;27.90;58.00;28.40;100667.00;;;;5047532;28;20259;-41
2022/08/26 06:46:12;;;;;;;14.80;13.40;;;27.80;57.80;28.40;100660.00;;;;5047229;28;20225;-42
2022/08/26 06:48:38;;;;;;;14.38;13.07;;;27.80;57.80;28.40;100668.00;;;;5046577;28;20190;-43
2022/08/26 06:51:11;;;;;;;15.52;13.93;;;27.90;57.60;28.40;100664.00;;;;5047200;28;20179;-44
2022/08/26 06:53:37;;;;;;;16.48;13.48;;;27.80;58.10;28.40;100678.00;;;;5047093;28;20225;-44
2022/08/26 06:56:05;;;;;;;18.33;14.68;;;27.90;58.20;28.40;100667.00;;;;5047342;28;20205;-44
2022/08/26 06:58:32;;;;;;;17.48;15.75;;;27.90;58.20;28.40;100679.00;;;;5061481;28;20197;-44
2022/08/26 07:00:57;;;;;;;20.80;18.77;;;27.90;57.90;28.40;100669.00;;;;5057881;28;20261;-45
2022/08/26 07:03:23;;;;;;;21.17;19.08;;;27.80;58.10;28.40;100675.00;;;;5048305;28;20241;-43
2022/08/26 07:05:49;;;;;;;19.80;17.75;;;27.80;58.00;28.30;100676.00;;;;5047247;28;20727;-43
2022/08/26 07:08:15;;;;;;;21.00;19.10;;;27.80;58.20;28.30;100672.00;;;;5045666;28;20780;-44
2022/08/26 07:10:41;;;;;;;19.17;17.38;;;27.70;58.30;28.30;100676.00;;;;5045748;28;20209;-44
2022/08/26 07:13:07;;;;;;;18.50;16.60;;;27.70;58.50;28.30;100546.00;;;;4983053;28;22338;-44
2022/08/26 07:15:34;;;;;;;18.02;16.33;;;27.70;58.20;28.30;100676.00;;;;5080088;28;20180;-44
2022/08/26 07:18:01;;;;;;;17.35;15.68;;;27.70;58.20;28.30;100675.00;;;;5073050;28;20642;-44
2022/08/26 07:20:27;;;;;;;17.83;16.23;;;27.70;57.80;28.30;100687.00;;;;5067532;28;20184;-44
2022/08/26 07:22:53;;;;;;;19.30;17.50;;;27.70;57.90;28.30;100669.00;;;;5093079;28;20165;-44
2022/08/26 07:25:19;;;;;;;22.70;20.33;;;27.70;57.80;28.30;100668.00;;;;5073421;28;20173;-44
2022/08/26 07:27:45;;;;;;;20.45;18.55;;;27.70;58.10;28.30;100683.00;;;;5075933;28;20688;-43
2022/08/26 07:30:11;;;;;;;25.35;23.05;;;27.70;58.00;28.30;100682.00;;;;5081675;28;20280;-43
2022/08/26 07:32:37;;;;;;;22.77;20.77;;;27.70;58.20;28.20;100687.00;;;;5083626;28;20319;-45
2022/08/26 07:35:05;;;;;;;23.17;21.15;;;27.70;58.20;28.20;100685.00;;;;5086015;28;20708;-44
2022/08/26 07:37:31;;;;;;;23.05;20.42;;;27.70;58.20;28.20;100690.00;;;;5101892;28;20825;-44
2022/08/26 07:39:56;;;;;;;21.73;19.83;;;27.60;58.20;28.20;100693.00;;;;5083608;28;20622;-43
2022/08/26 07:42:22;;;;;;;22.55;20.35;;;27.70;58.20;28.20;100698.00;;;;5073785;28;20432;-44
2022/08/26 07:44:48;;;;;;;22.73;20.63;;;27.70;58.10;28.20;100693.00;;;;5088944;28;20173;-43
2022/08/26 07:47:14;;;;;;;21.58;19.48;;;27.70;57.90;28.20;100699.00;;;;5073368;28;20548;-43
2022/08/26 07:49:40;;;;;;;19.33;17.33;;;27.70;58.20;28.20;100694.00;;;;5067452;28;20201;-43
2022/08/26 07:52:06;;;;;;;19.55;17.83;;;27.70;58.10;28.20;100694.00;;;;5069414;28;20200;-42
2022/08/26 07:54:31;;;;;;;19.05;17.15;;;27.60;58.00;28.20;100700.00;;;;5069077;28;20396;-42
2022/08/26 07:56:57;;;;;;;17.63;15.90;;;27.60;58.10;28.20;100705.00;;;;5068951;28;20634;-42
2022/08/26 07:59:23;;;;;;;17.23;15.63;;;27.60;58.10;28.20;100700.00;;;;5068462;28;20205;-44
2022/08/26 08:01:49;;;;;;;16.75;15.15;;;27.50;58.00;28.10;100704.00;;;;5068759;28;20181;-43
2022/08/26 08:04:16;;;;;;;15.05;13.63;;;27.50;58.00;28.10;100707.00;;;;5068508;28;20259;-42
2022/08/26 08:06:42;;;;;;;16.52;15.00;;;27.50;58.00;28.10;100708.00;;;;5068913;28;20158;-43
2022/08/26 08:09:08;;;;;;;15.20;13.77;;;27.50;58.00;28.10;100713.00;;;;5086248;28;20215;-44
2022/08/26 08:11:35;;;;;;;15.05;13.75;;;27.50;57.90;28.10;100710.00;;;;5089051;28;20270;-43
2022/08/26 08:14:01;;;;;;;14.68;13.18;;;27.50;57.90;28.10;100711.00;;;;4959973;28;20264;-41
2022/08/26 08:16:27;;;;;;;16.08;14.40;;;27.50;57.80;28.10;100715.00;;;;5085915;28;20173;-42
2022/08/26 08:18:55;;;;;;;14.63;13.25;;;27.50;58.00;28.10;100709.00;;;;5088932;28;20185;-42
2022/08/26 08:21:24;;;;;;;14.23;12.77;;;27.50;57.90;28.10;100714.00;;;;5088972;28;20173;-42
2022/08/26 08:23:52;;;;;;;13.95;12.55;;;27.50;58.00;28.10;100706.00;;;;5089074;28;20257;-40
2022/08/26 08:26:17;;;;;;;12.60;11.50;;;27.50;58.10;28.10;100708.00;;;;5088763;28;20145;-45
2022/08/26 08:28:45;;;;;;;12.30;11.00;;;27.40;58.20;28.10;100715.00;;;;5088671;28;20267;-43
2022/08/26 08:31:19;;;;;;;11.93;10.70;;;27.40;58.30;28.00;100706.00;;;;5089036;28;20268;-43
2022/08/26 08:33:45;;;;;;;10.07;9.18;;;27.40;58.70;28.00;100717.00;;;;5089096;28;20720;-44
2022/08/26 08:36:13;;;;;;;10.52;9.63;;;27.40;58.60;28.00;100720.00;;;;5089660;28;20301;-43
2022/08/26 08:38:39;;;;;;;9.13;8.13;;;27.30;58.70;27.90;100717.00;;;;5091391;28;20193;-41
2022/08/26 08:41:05;;;;;;;9.20;8.30;;;27.30;58.70;28.00;100720.00;;;;5093229;28;20534;-44
2022/08/26 08:43:38;;;;;;;8.15;7.45;;;27.30;59.30;28.00;100714.00;;;;5091486;28;20181;-44
2022/08/26 08:46:15;;;;;;;9.95;8.18;;;27.30;58.20;28.00;100707.00;;;;5087421;28;20149;-40
2022/08/26 08:48:43;;;;;;;7.75;7.00;;;27.40;58.50;28.00;100716.00;;;;5070275;28;20728;-44
2022/08/26 08:51:27;;;;;;;7.85;7.13;;;27.40;58.40;28.00;100720.00;;;;5087502;28;20179;-43
2022/08/26 08:53:53;;;;;;;8.05;6.88;;;27.40;58.40;28.00;100718.00;;;;5074907;28;20228;-43
2022/08/26 08:56:30;;;;;;;7.43;6.68;;;27.40;58.70;28.00;100721.00;;;;5093807;28;20165;-42
2022/08/26 08:59:21;;;;;;;8.15;7.25;;;27.30;58.60;28.00;100718.00;;;;5075590;28;20199;-42
2022/08/26 09:02:11;;;;;;;7.28;6.45;;;27.40;58.50;28.00;100724.00;;;;5092577;28;20192;-41
2022/08/26 09:04:50;;;;;;;6.95;6.30;;;27.40;58.40;27.90;100730.00;;;;5075788;28;20177;-43
2022/08/26 09:07:44;;;;;;;8.82;7.93;;;27.40;58.40;28.00;100720.00;;;;5070862;28;20165;-41
2022/08/26 09:10:35;;;;;;;8.50;7.72;;;27.30;58.50;27.90;100732.00;;;;5071435;28;20205;-43
2022/08/26 09:13:08;;;;;;;8.95;7.40;;;27.30;58.50;27.90;100739.00;;;;5070766;28;20213;-44
2022/08/26 09:16:14;;;;;;;9.35;8.25;;;27.40;58.40;27.90;100731.00;;;;5071061;28;20614;-43
2022/08/26 09:19:21;;;;;;;9.07;8.18;;;27.30;58.60;27.90;100727.00;;;;5008275;28;20188;-43
2022/08/26 09:21:58;;;;;;;9.13;8.23;;;27.30;58.50;27.90;100718.00;;;;5011831;28;20168;-43
2022/08/26 09:24:24;;;;;;;11.38;10.23;;;27.30;58.50;27.90;100727.00;;;;5061416;28;20817;-41
2022/08/26 09:26:51;;;;;;;12.48;11.43;;;27.30;58.30;27.90;100725.00;;;;5072166;28;20649;-43
2022/08/26 09:29:34;;;;;;;17.40;15.73;;;27.30;58.40;27.90;100729.00;;;;5070579;28;20204;-45
2022/08/26 09:32:23;;;;;;;19.23;17.33;;;27.30;58.50;27.90;100732.00;;;;5070433;28;20544;-43
2022/08/26 09:34:56;;;;;;;18.27;16.67;;;27.30;58.70;27.90;100732.00;;;;5070674;28;20221;-43
2022/08/26 09:37:39;;;;;;;25.45;23.15;;;27.30;58.30;27.90;100731.00;;;;5072133;28;20222;-43
2022/08/26 09:40:31;;;;;;;22.70;20.60;;;27.30;58.50;27.90;100728.00;;;;5072077;28;20200;-43
2022/08/26 09:43:20;;;;;;;23.83;21.80;;;27.30;58.30;27.90;100725.00;;;;5072257;28;20208;-44
2022/08/26 09:45:53;;;;;;;25.20;22.80;;;27.30;58.50;27.90;100725.00;;;;5070354;28;20307;-44
2022/08/26 09:48:36;;;;;;;24.23;22.02;;;27.30;58.50;27.90;100732.00;;;;5070118;28;20231;-42
2022/08/26 09:51:05;;;;;;;22.75;20.67;;;27.30;58.60;27.90;100727.00;;;;5055982;28;20415;-43
2022/08/26 09:53:35;;;;;;;23.00;20.88;;;27.30;58.70;27.90;100730.00;;;;5073920;28;20193;-42
2022/08/26 09:56:16;;;;;;;22.80;20.70;;;27.30;58.40;27.90;100729.00;;;;5072722;28;20174;-43
2022/08/26 09:58:44;;;;;;;24.40;22.00;;;27.30;58.70;27.90;100731.00;;;;5071298;28;20189;-42
2022/08/26 10:01:34;;;;;;;24.50;22.40;;;27.20;58.90;27.90;100722.00;;;;5053910;28;20170;-44
2022/08/26 10:04:29;;;;;;;27.02;24.63;;;27.20;58.90;27.80;100727.00;;;;5071980;28;20150;-42
2022/08/26 10:07:04;;;;;;;32.75;29.90;;;27.20;58.70;27.80;100725.00;;;;5009658;28;22766;-45
2022/08/26 10:09:39;;;;;;;33.00;29.98;;;27.20;58.90;27.80;100720.00;;;;5076753;28;20832;-42
2022/08/26 10:12:20;;;;;;;36.58;33.30;;;27.30;58.80;27.80;100728.00;;;;5072143;28;20185;-44
2022/08/26 10:14:50;;;;;;;38.35;34.92;;;27.20;58.40;27.80;100719.00;;;;5071242;28;20181;-46
2022/08/26 10:17:30;;;;;;;40.67;36.97;;;27.20;58.60;27.90;100728.00;;;;5052697;28;20566;-42
2022/08/26 10:20:08;;;;;;;38.75;35.55;;;27.20;58.70;27.90;100719.00;;;;5067130;28;20177;-45
2022/08/26 10:22:46;;;;;;;40.20;36.72;;;27.20;58.60;27.80;100717.00;;;;5068815;28;20628;-43
2022/08/26 10:25:28;;;;;;;39.65;36.35;;;27.20;58.70;27.80;100716.00;;;;5052493;28;20268;-41
2022/08/26 10:28:30;;;;;;;38.63;35.42;;;27.20;58.80;27.80;100736.00;;;;5049820;28;20190;-43
2022/08/26 10:31:23;;;;;;;39.60;36.33;;;27.10;58.80;27.80;100704.00;;;;5056476;28;20776;-45
2022/08/26 10:33:48;;;;;;;38.00;34.85;;;27.10;58.60;27.80;100720.00;;;;5069441;28;20183;-44
2022/08/26 10:36:50;;;;;;;36.65;33.85;;;27.10;58.70;27.80;100718.00;;;;5066173;28;20781;-43
2022/08/26 10:39:15;;;;;;;34.80;32.00;;;27.10;58.90;27.80;100711.00;;;;5051461;28;20292;-43
2022/08/26 10:41:42;;;;;;;31.45;28.95;;;27.10;58.80;27.70;100719.00;;;;5070358;28;20240;-43
2022/08/26 10:44:10;;;;;;;31.70;29.02;;;27.10;58.90;27.70;100722.00;;;;5087056;28;20207;-43
2022/08/26 10:46:49;;;;;;;32.55;29.95;;;27.10;59.00;27.80;100710.00;;;;5087035;28;20180;-43
2022/08/26 10:49:16;;;;;;;30.98;28.58;;;27.10;59.00;27.50;100727.00;;;;5088256;28;20215;-43
2022/08/26 10:51:53;;;;;;;30.83;28.42;;;27.10;58.90;27.80;100727.00;;;;5088063;28;20254;-41
2022/08/26 10:54:22;;;;;;;30.15;27.70;;;27.10;58.70;27.80;100725.00;;;;5071505;28;20175;-42